sensor_id;sensor_type;location;lat;lon;timestamp;P1;durP1;ratioP1;P2;durP2;ratioP2
68608;SDS011;55581;46.718;7.690;2022-12-07T00:01:06;14.50;;;6.73;;
68608;SDS011;55581;46.718;7.690;2022-12-07T00:03:56;15.18;;;7.63;;
68608;SDS011;55581;46.718;7.690;2022-12-07T00:06:28;17.60;;;8.45;;
68608;SDS011;55581;46.718;7.690;2022-12-07T00:08:54;19.87;;;8.43;;
68608;SDS011;55581;46.718;7.690;2022-12-07T00:11:20;17.57;;;7.97;;
68608;SDS011;55581;46.718;7.690;2022-12-07T00:13:47;18.42;;;7.95;;
68608;SDS011;55581;46.718;7.690;2022-12-07T00:16:20;19.27;;;7.57;;
68608;SDS011;55581;46.718;7.690;2022-12-07T00:18:46;15.40;;;7.55;;
68608;SDS011;55581;46.718;7.690;2022-12-07T00:21:13;16.43;;;7.70;;
68608;SDS011;55581;46.718;7.690;2022-12-07T00:23:46;19.63;;;8.65;;
68608;SDS011;55581;46.718;7.690;2022-12-07T00:26:14;19.87;;;8.13;;
68608;SDS011;55581;46.718;7.690;2022-12-07T00:28:41;18.33;;;7.75;;
68608;SDS011;55581;46.718;7.690;2022-12-07T00:31:14;18.95;;;7.47;;
68608;SDS011;55581;46.718;7.690;2022-12-07T00:33:44;16.23;;;7.85;;
68608;SDS011;55581;46.718;7.690;2022-12-07T00:36:11;18.25;;;8.05;;
68608;SDS011;55581;46.718;7.690;2022-12-07T00:38:40;16.60;;;7.63;;
68608;SDS011;55581;46.718;7.690;2022-12-07T00:41:08;13.85;;;6.53;;
68608;SDS011;55581;46.718;7.690;2022-12-07T00:43:36;14.90;;;6.68;;
68608;SDS011;55581;46.718;7.690;2022-12-07T00:46:02;14.05;;;5.97;;
68608;SDS011;55581;46.718;7.690;2022-12-07T00:48:28;14.07;;;6.63;;
68608;SDS011;55581;46.718;7.690;2022-12-07T00:50:53;14.65;;;6.47;;
68608;SDS011;55581;46.718;7.690;2022-12-07T00:53:19;17.53;;;7.67;;
68608;SDS011;55581;46.718;7.690;2022-12-07T00:55:45;14.55;;;7.40;;
68608;SDS011;55581;46.718;7.690;2022-12-07T00:58:10;17.40;;;7.90;;
68608;SDS011;55581;46.718;7.690;2022-12-07T01:00:37;16.13;;;6.63;;
68608;SDS011;55581;46.718;7.690;2022-12-07T01:03:03;13.63;;;6.50;;
68608;SDS011;55581;46.718;7.690;2022-12-07T01:05:30;15.00;;;6.40;;
68608;SDS011;55581;46.718;7.690;2022-12-07T01:07:55;14.40;;;6.57;;
68608;SDS011;55581;46.718;7.690;2022-12-07T01:10:20;14.00;;;7.13;;
68608;SDS011;55581;46.718;7.690;2022-12-07T01:12:46;14.30;;;7.03;;
68608;SDS011;55581;46.718;7.690;2022-12-07T01:15:11;13.83;;;6.97;;
68608;SDS011;55581;46.718;7.690;2022-12-07T01:17:37;12.00;;;5.43;;
68608;SDS011;55581;46.718;7.690;2022-12-07T01:20:05;14.57;;;6.88;;
68608;SDS011;55581;46.718;7.690;2022-12-07T01:22:36;13.87;;;6.83;;
68608;SDS011;55581;46.718;7.690;2022-12-07T01:25:02;17.02;;;8.07;;
68608;SDS011;55581;46.718;7.690;2022-12-07T01:27:28;14.80;;;6.78;;
68608;SDS011;55581;46.718;7.690;2022-12-07T01:29:56;18.53;;;7.83;;
68608;SDS011;55581;46.718;7.690;2022-12-07T01:32:21;15.35;;;6.78;;
68608;SDS011;55581;46.718;7.690;2022-12-07T01:34:47;15.00;;;7.03;;
68608;SDS011;55581;46.718;7.690;2022-12-07T01:37:13;16.40;;;7.13;;
68608;SDS011;55581;46.718;7.690;2022-12-07T01:39:39;18.10;;;8.33;;
68608;SDS011;55581;46.718;7.690;2022-12-07T01:42:04;16.63;;;7.50;;
68608;SDS011;55581;46.718;7.690;2022-12-07T01:44:30;15.85;;;7.43;;
68608;SDS011;55581;46.718;7.690;2022-12-07T01:47:01;18.83;;;8.17;;
68608;SDS011;55581;46.718;7.690;2022-12-07T01:49:30;17.77;;;7.60;;
68608;SDS011;55581;46.718;7.690;2022-12-07T01:52:04;17.35;;;8.48;;
68608;SDS011;55581;46.718;7.690;2022-12-07T01:54:41;18.65;;;8.05;;
68608;SDS011;55581;46.718;7.690;2022-12-07T01:57:09;17.05;;;7.80;;
68608;SDS011;55581;46.718;7.690;2022-12-07T01:59:35;20.10;;;7.90;;
68608;SDS011;55581;46.718;7.690;2022-12-07T02:02:04;17.17;;;8.27;;
68608;SDS011;55581;46.718;7.690;2022-12-07T02:04:35;16.17;;;7.43;;
68608;SDS011;55581;46.718;7.690;2022-12-07T02:07:01;17.08;;;7.63;;
68608;SDS011;55581;46.718;7.690;2022-12-07T02:09:28;15.87;;;8.13;;
68608;SDS011;55581;46.718;7.690;2022-12-07T02:11:58;16.52;;;7.55;;
68608;SDS011;55581;46.718;7.690;2022-12-07T02:14:28;15.13;;;7.15;;
68608;SDS011;55581;46.718;7.690;2022-12-07T02:17:18;15.40;;;7.45;;
68608;SDS011;55581;46.718;7.690;2022-12-07T02:20:00;15.35;;;7.40;;
68608;SDS011;55581;46.718;7.690;2022-12-07T02:28:29;14.75;;;6.97;;
68608;SDS011;55581;46.718;7.690;2022-12-07T02:30:58;14.38;;;7.18;;
68608;SDS011;55581;46.718;7.690;2022-12-07T02:33:37;14.77;;;6.65;;
68608;SDS011;55581;46.718;7.690;2022-12-07T02:36:10;14.93;;;7.27;;
68608;SDS011;55581;46.718;7.690;2022-12-07T02:38:50;14.65;;;7.00;;
68608;SDS011;55581;46.718;7.690;2022-12-07T02:41:33;15.75;;;7.25;;
68608;SDS011;55581;46.718;7.690;2022-12-07T02:44:12;13.52;;;7.32;;
68608;SDS011;55581;46.718;7.690;2022-12-07T02:46:43;14.68;;;6.45;;
68608;SDS011;55581;46.718;7.690;2022-12-07T02:49:13;13.17;;;6.83;;
68608;SDS011;55581;46.718;7.690;2022-12-07T02:51:43;14.95;;;6.18;;
68608;SDS011;55581;46.718;7.690;2022-12-07T02:54:16;12.95;;;5.97;;
68608;SDS011;55581;46.718;7.690;2022-12-07T03:02:00;13.82;;;7.15;;
68608;SDS011;55581;46.718;7.690;2022-12-07T03:07:21;17.90;;;7.27;;
68608;SDS011;55581;46.718;7.690;2022-12-07T03:13:03;13.18;;;6.20;;
68608;SDS011;55581;46.718;7.690;2022-12-07T03:18:16;16.08;;;7.70;;
68608;SDS011;55581;46.718;7.690;2022-12-07T03:20:45;16.53;;;6.80;;
68608;SDS011;55581;46.718;7.690;2022-12-07T03:23:13;13.48;;;6.70;;
68608;SDS011;55581;46.718;7.690;2022-12-07T03:25:40;15.38;;;7.03;;
68608;SDS011;55581;46.718;7.690;2022-12-07T03:28:11;13.65;;;6.32;;
68608;SDS011;55581;46.718;7.690;2022-12-07T03:30:57;13.43;;;6.90;;
68608;SDS011;55581;46.718;7.690;2022-12-07T03:33:31;12.00;;;6.00;;
68608;SDS011;55581;46.718;7.690;2022-12-07T03:36:06;13.98;;;6.40;;
68608;SDS011;55581;46.718;7.690;2022-12-07T03:41:19;13.52;;;6.70;;
68608;SDS011;55581;46.718;7.690;2022-12-07T03:43:54;12.95;;;6.68;;
68608;SDS011;55581;46.718;7.690;2022-12-07T03:47:05;15.07;;;6.90;;
68608;SDS011;55581;46.718;7.690;2022-12-07T03:57:31;17.88;;;7.50;;
68608;SDS011;55581;46.718;7.690;2022-12-07T04:00:00;15.53;;;7.43;;
68608;SDS011;55581;46.718;7.690;2022-12-07T04:02:27;13.23;;;7.30;;
68608;SDS011;55581;46.718;7.690;2022-12-07T04:04:54;13.98;;;6.75;;
68608;SDS011;55581;46.718;7.690;2022-12-07T04:07:20;15.82;;;7.63;;
68608;SDS011;55581;46.718;7.690;2022-12-07T04:09:46;14.97;;;7.07;;
68608;SDS011;55581;46.718;7.690;2022-12-07T04:12:11;17.63;;;8.23;;
68608;SDS011;55581;46.718;7.690;2022-12-07T04:14:37;16.20;;;7.87;;
68608;SDS011;55581;46.718;7.690;2022-12-07T04:17:02;20.27;;;8.90;;
68608;SDS011;55581;46.718;7.690;2022-12-07T04:19:29;17.08;;;7.50;;
68608;SDS011;55581;46.718;7.690;2022-12-07T04:21:58;13.07;;;6.60;;
68608;SDS011;55581;46.718;7.690;2022-12-07T04:24:24;13.13;;;6.07;;
68608;SDS011;55581;46.718;7.690;2022-12-07T04:26:52;12.15;;;6.10;;
68608;SDS011;55581;46.718;7.690;2022-12-07T04:29:20;11.85;;;5.60;;
68608;SDS011;55581;46.718;7.690;2022-12-07T04:31:46;13.07;;;6.00;;
68608;SDS011;55581;46.718;7.690;2022-12-07T04:34:12;13.38;;;6.05;;
68608;SDS011;55581;46.718;7.690;2022-12-07T04:36:38;12.43;;;6.05;;
68608;SDS011;55581;46.718;7.690;2022-12-07T04:39:05;12.40;;;5.73;;
68608;SDS011;55581;46.718;7.690;2022-12-07T04:41:31;11.82;;;6.55;;
68608;SDS011;55581;46.718;7.690;2022-12-07T04:43:57;14.13;;;6.83;;
68608;SDS011;55581;46.718;7.690;2022-12-07T04:46:24;13.57;;;6.80;;
68608;SDS011;55581;46.718;7.690;2022-12-07T04:48:51;14.63;;;6.10;;
68608;SDS011;55581;46.718;7.690;2022-12-07T04:51:24;12.43;;;5.65;;
68608;SDS011;55581;46.718;7.690;2022-12-07T04:53:51;12.30;;;5.80;;
68608;SDS011;55581;46.718;7.690;2022-12-07T04:56:17;12.03;;;5.80;;
68608;SDS011;55581;46.718;7.690;2022-12-07T04:58:45;12.45;;;6.18;;
68608;SDS011;55581;46.718;7.690;2022-12-07T05:01:12;13.32;;;5.30;;
68608;SDS011;55581;46.718;7.690;2022-12-07T05:03:38;10.40;;;5.05;;
68608;SDS011;55581;46.718;7.690;2022-12-07T05:06:04;14.27;;;6.90;;
68608;SDS011;55581;46.718;7.690;2022-12-07T05:08:32;17.20;;;8.15;;
68608;SDS011;55581;46.718;7.690;2022-12-07T05:10:58;14.35;;;7.30;;
68608;SDS011;55581;46.718;7.690;2022-12-07T05:13:23;13.95;;;7.38;;
68608;SDS011;55581;46.718;7.690;2022-12-07T05:15:49;16.73;;;7.67;;
68608;SDS011;55581;46.718;7.690;2022-12-07T05:18:15;19.47;;;9.03;;
68608;SDS011;55581;46.718;7.690;2022-12-07T05:20:41;19.85;;;8.57;;
68608;SDS011;55581;46.718;7.690;2022-12-07T05:23:07;17.67;;;8.30;;
68608;SDS011;55581;46.718;7.690;2022-12-07T05:25:33;15.87;;;7.10;;
68608;SDS011;55581;46.718;7.690;2022-12-07T05:27:59;18.17;;;8.20;;
68608;SDS011;55581;46.718;7.690;2022-12-07T05:30:25;19.07;;;9.37;;
68608;SDS011;55581;46.718;7.690;2022-12-07T05:32:51;18.17;;;8.13;;
68608;SDS011;55581;46.718;7.690;2022-12-07T05:35:17;18.97;;;8.23;;
68608;SDS011;55581;46.718;7.690;2022-12-07T05:37:43;18.45;;;8.25;;
68608;SDS011;55581;46.718;7.690;2022-12-07T05:40:09;19.63;;;8.30;;
68608;SDS011;55581;46.718;7.690;2022-12-07T05:42:35;17.23;;;7.90;;
68608;SDS011;55581;46.718;7.690;2022-12-07T05:45:00;20.17;;;7.95;;
68608;SDS011;55581;46.718;7.690;2022-12-07T05:47:26;17.37;;;8.07;;
68608;SDS011;55581;46.718;7.690;2022-12-07T05:49:51;17.33;;;7.67;;
68608;SDS011;55581;46.718;7.690;2022-12-07T05:52:17;16.83;;;7.73;;
68608;SDS011;55581;46.718;7.690;2022-12-07T05:54:42;19.83;;;9.05;;
68608;SDS011;55581;46.718;7.690;2022-12-07T05:57:07;23.30;;;8.13;;
68608;SDS011;55581;46.718;7.690;2022-12-07T05:59:33;18.07;;;7.73;;
68608;SDS011;55581;46.718;7.690;2022-12-07T06:01:59;17.37;;;8.07;;
68608;SDS011;55581;46.718;7.690;2022-12-07T06:04:27;19.25;;;8.60;;
68608;SDS011;55581;46.718;7.690;2022-12-07T06:06:55;17.98;;;8.10;;
68608;SDS011;55581;46.718;7.690;2022-12-07T06:09:23;20.35;;;8.23;;
68608;SDS011;55581;46.718;7.690;2022-12-07T06:11:50;16.97;;;7.50;;
68608;SDS011;55581;46.718;7.690;2022-12-07T06:14:34;17.30;;;7.63;;
68608;SDS011;55581;46.718;7.690;2022-12-07T06:17:00;16.60;;;7.63;;
68608;SDS011;55581;46.718;7.690;2022-12-07T06:19:26;16.13;;;7.33;;
68608;SDS011;55581;46.718;7.690;2022-12-07T06:21:51;17.90;;;7.65;;
68608;SDS011;55581;46.718;7.690;2022-12-07T06:24:17;17.17;;;7.70;;
68608;SDS011;55581;46.718;7.690;2022-12-07T06:26:43;17.92;;;8.25;;
68608;SDS011;55581;46.718;7.690;2022-12-07T06:29:09;17.88;;;8.18;;
68608;SDS011;55581;46.718;7.690;2022-12-07T06:31:35;17.60;;;8.67;;
68608;SDS011;55581;46.718;7.690;2022-12-07T06:34:02;18.35;;;9.23;;
68608;SDS011;55581;46.718;7.690;2022-12-07T06:36:32;21.08;;;9.05;;
68608;SDS011;55581;46.718;7.690;2022-12-07T06:38:58;20.80;;;8.50;;
68608;SDS011;55581;46.718;7.690;2022-12-07T06:41:23;17.90;;;9.13;;
68608;SDS011;55581;46.718;7.690;2022-12-07T06:43:49;18.67;;;8.70;;
68608;SDS011;55581;46.718;7.690;2022-12-07T06:46:14;17.30;;;8.50;;
68608;SDS011;55581;46.718;7.690;2022-12-07T06:48:40;18.45;;;8.70;;
68608;SDS011;55581;46.718;7.690;2022-12-07T06:51:06;17.50;;;8.23;;
68608;SDS011;55581;46.718;7.690;2022-12-07T06:53:32;21.30;;;8.47;;
68608;SDS011;55581;46.718;7.690;2022-12-07T06:55:57;18.97;;;9.07;;
68608;SDS011;55581;46.718;7.690;2022-12-07T06:58:25;18.00;;;8.53;;
68608;SDS011;55581;46.718;7.690;2022-12-07T07:00:50;18.88;;;8.98;;
68608;SDS011;55581;46.718;7.690;2022-12-07T07:03:16;15.90;;;8.30;;
68608;SDS011;55581;46.718;7.690;2022-12-07T07:05:42;18.83;;;9.23;;
68608;SDS011;55581;46.718;7.690;2022-12-07T07:08:08;17.50;;;8.37;;
68608;SDS011;55581;46.718;7.690;2022-12-07T07:10:34;19.00;;;8.18;;
68608;SDS011;55581;46.718;7.690;2022-12-07T07:13:02;16.88;;;7.60;;
68608;SDS011;55581;46.718;7.690;2022-12-07T07:15:31;18.30;;;8.07;;
68608;SDS011;55581;46.718;7.690;2022-12-07T07:17:56;18.23;;;8.57;;
68608;SDS011;55581;46.718;7.690;2022-12-07T07:20:22;16.77;;;8.43;;
68608;SDS011;55581;46.718;7.690;2022-12-07T07:22:47;17.35;;;8.40;;
68608;SDS011;55581;46.718;7.690;2022-12-07T07:25:13;16.30;;;8.53;;
68608;SDS011;55581;46.718;7.690;2022-12-07T07:27:39;22.17;;;11.65;;
68608;SDS011;55581;46.718;7.690;2022-12-07T07:30:05;23.10;;;10.37;;
68608;SDS011;55581;46.718;7.690;2022-12-07T07:32:31;17.27;;;8.95;;
68608;SDS011;55581;46.718;7.690;2022-12-07T07:34:56;21.77;;;11.10;;
68608;SDS011;55581;46.718;7.690;2022-12-07T07:37:22;19.90;;;8.93;;
68608;SDS011;55581;46.718;7.690;2022-12-07T07:39:47;20.00;;;9.33;;
68608;SDS011;55581;46.718;7.690;2022-12-07T07:42:12;21.00;;;8.93;;
68608;SDS011;55581;46.718;7.690;2022-12-07T07:44:38;27.50;;;13.63;;
68608;SDS011;55581;46.718;7.690;2022-12-07T07:47:03;31.37;;;14.90;;
68608;SDS011;55581;46.718;7.690;2022-12-07T07:49:28;25.58;;;13.40;;
68608;SDS011;55581;46.718;7.690;2022-12-07T07:51:54;21.83;;;10.33;;
68608;SDS011;55581;46.718;7.690;2022-12-07T07:54:22;39.38;;;21.38;;
68608;SDS011;55581;46.718;7.690;2022-12-07T07:56:47;17.37;;;9.07;;
68608;SDS011;55581;46.718;7.690;2022-12-07T07:59:13;31.00;;;16.17;;
68608;SDS011;55581;46.718;7.690;2022-12-07T08:01:40;40.03;;;19.20;;
68608;SDS011;55581;46.718;7.690;2022-12-07T08:04:05;28.53;;;13.57;;
68608;SDS011;55581;46.718;7.690;2022-12-07T08:06:31;23.00;;;10.53;;
68608;SDS011;55581;46.718;7.690;2022-12-07T08:08:56;18.20;;;9.65;;
68608;SDS011;55581;46.718;7.690;2022-12-07T08:11:23;19.50;;;9.13;;
68608;SDS011;55581;46.718;7.690;2022-12-07T08:13:48;19.02;;;8.30;;
68608;SDS011;55581;46.718;7.690;2022-12-07T08:16:14;17.73;;;8.33;;
68608;SDS011;55581;46.718;7.690;2022-12-07T08:18:40;15.45;;;7.45;;
68608;SDS011;55581;46.718;7.690;2022-12-07T08:21:06;15.80;;;7.03;;
68608;SDS011;55581;46.718;7.690;2022-12-07T08:23:34;13.53;;;6.40;;
68608;SDS011;55581;46.718;7.690;2022-12-07T08:26:00;13.48;;;6.28;;
68608;SDS011;55581;46.718;7.690;2022-12-07T08:28:27;13.90;;;6.10;;
68608;SDS011;55581;46.718;7.690;2022-12-07T08:30:58;11.87;;;5.47;;
68608;SDS011;55581;46.718;7.690;2022-12-07T08:33:27;12.15;;;6.07;;
68608;SDS011;55581;46.718;7.690;2022-12-07T08:35:54;12.50;;;5.45;;
68608;SDS011;55581;46.718;7.690;2022-12-07T08:38:24;14.73;;;7.70;;
68608;SDS011;55581;46.718;7.690;2022-12-07T08:40:56;13.60;;;6.73;;
68608;SDS011;55581;46.718;7.690;2022-12-07T08:43:23;13.45;;;6.32;;
68608;SDS011;55581;46.718;7.690;2022-12-07T08:45:53;16.23;;;6.63;;
68608;SDS011;55581;46.718;7.690;2022-12-07T08:48:22;21.07;;;6.83;;
68608;SDS011;55581;46.718;7.690;2022-12-07T08:50:49;13.40;;;6.03;;
68608;SDS011;55581;46.718;7.690;2022-12-07T08:53:15;16.73;;;7.25;;
68608;SDS011;55581;46.718;7.690;2022-12-07T08:55:44;12.90;;;5.85;;
68608;SDS011;55581;46.718;7.690;2022-12-07T08:58:11;16.38;;;7.05;;
68608;SDS011;55581;46.718;7.690;2022-12-07T09:00:36;14.57;;;6.93;;
68608;SDS011;55581;46.718;7.690;2022-12-07T09:03:02;15.20;;;6.60;;
68608;SDS011;55581;46.718;7.690;2022-12-07T09:05:27;15.57;;;7.33;;
68608;SDS011;55581;46.718;7.690;2022-12-07T09:07:54;14.07;;;7.20;;
68608;SDS011;55581;46.718;7.690;2022-12-07T09:10:22;15.38;;;7.55;;
68608;SDS011;55581;46.718;7.690;2022-12-07T09:12:48;15.50;;;7.93;;
68608;SDS011;55581;46.718;7.690;2022-12-07T09:15:14;17.60;;;8.77;;
68608;SDS011;55581;46.718;7.690;2022-12-07T09:17:39;16.40;;;7.87;;
68608;SDS011;55581;46.718;7.690;2022-12-07T09:20:05;17.43;;;8.73;;
68608;SDS011;55581;46.718;7.690;2022-12-07T09:22:31;16.40;;;7.70;;
68608;SDS011;55581;46.718;7.690;2022-12-07T09:24:58;13.45;;;6.45;;
68608;SDS011;55581;46.718;7.690;2022-12-07T09:27:23;13.87;;;5.37;;
68608;SDS011;55581;46.718;7.690;2022-12-07T09:29:49;12.18;;;5.55;;
68608;SDS011;55581;46.718;7.690;2022-12-07T09:32:14;12.30;;;5.50;;
68608;SDS011;55581;46.718;7.690;2022-12-07T09:34:40;11.63;;;5.57;;
68608;SDS011;55581;46.718;7.690;2022-12-07T09:37:05;10.77;;;5.53;;
68608;SDS011;55581;46.718;7.690;2022-12-07T09:39:31;12.27;;;5.40;;
68608;SDS011;55581;46.718;7.690;2022-12-07T09:41:57;13.07;;;5.67;;
68608;SDS011;55581;46.718;7.690;2022-12-07T09:44:28;12.93;;;5.65;;
68608;SDS011;55581;46.718;7.690;2022-12-07T09:46:53;16.20;;;6.20;;
68608;SDS011;55581;46.718;7.690;2022-12-07T09:49:22;14.60;;;5.75;;
68608;SDS011;55581;46.718;7.690;2022-12-07T09:52:26;12.38;;;5.53;;
68608;SDS011;55581;46.718;7.690;2022-12-07T09:54:46;11.83;;;5.33;;
68608;SDS011;55581;46.718;7.690;2022-12-07T09:57:14;14.18;;;5.97;;
68608;SDS011;55581;46.718;7.690;2022-12-07T09:59:40;14.70;;;5.85;;
68608;SDS011;55581;46.718;7.690;2022-12-07T10:05:45;14.43;;;5.53;;
68608;SDS011;55581;46.718;7.690;2022-12-07T10:08:13;12.68;;;5.57;;
68608;SDS011;55581;46.718;7.690;2022-12-07T10:10:41;10.80;;;4.85;;
68608;SDS011;55581;46.718;7.690;2022-12-07T10:13:07;12.00;;;5.45;;
68608;SDS011;55581;46.718;7.690;2022-12-07T10:18:52;11.53;;;4.77;;
68608;SDS011;55581;46.718;7.690;2022-12-07T10:21:21;12.18;;;5.40;;
68608;SDS011;55581;46.718;7.690;2022-12-07T10:29:00;11.13;;;5.35;;
68608;SDS011;55581;46.718;7.690;2022-12-07T10:31:38;11.43;;;4.60;;
68608;SDS011;55581;46.718;7.690;2022-12-07T10:34:12;14.13;;;5.22;;
68608;SDS011;55581;46.718;7.690;2022-12-07T10:36:47;11.50;;;5.27;;
68608;SDS011;55581;46.718;7.690;2022-12-07T10:42:01;11.00;;;4.95;;
68608;SDS011;55581;46.718;7.690;2022-12-07T10:44:29;10.93;;;5.27;;
68608;SDS011;55581;46.718;7.690;2022-12-07T10:52:26;10.50;;;5.07;;
68608;SDS011;55581;46.718;7.690;2022-12-07T11:00:31;10.25;;;5.28;;
68608;SDS011;55581;46.718;7.690;2022-12-07T11:11:54;12.23;;;5.47;;
68608;SDS011;55581;46.718;7.690;2022-12-07T11:14:49;12.98;;;4.90;;
68608;SDS011;55581;46.718;7.690;2022-12-07T11:17:19;14.57;;;5.88;;
68608;SDS011;55581;46.718;7.690;2022-12-07T11:20:14;10.68;;;5.25;;
68608;SDS011;55581;46.718;7.690;2022-12-07T11:23:10;10.93;;;4.75;;
68608;SDS011;55581;46.718;7.690;2022-12-07T11:36:40;11.27;;;4.88;;
68608;SDS011;55581;46.718;7.690;2022-12-07T11:39:16;11.37;;;5.43;;
68608;SDS011;55581;46.718;7.690;2022-12-07T11:41:48;12.55;;;6.20;;
68608;SDS011;55581;46.718;7.690;2022-12-07T11:44:23;11.85;;;5.30;;
68608;SDS011;55581;46.718;7.690;2022-12-07T11:47:13;10.95;;;5.57;;
68608;SDS011;55581;46.718;7.690;2022-12-07T11:49:47;11.38;;;5.45;;
68608;SDS011;55581;46.718;7.690;2022-12-07T11:52:25;12.77;;;5.40;;
68608;SDS011;55581;46.718;7.690;2022-12-07T11:54:57;11.15;;;5.32;;
68608;SDS011;55581;46.718;7.690;2022-12-07T11:57:28;10.32;;;5.28;;
68608;SDS011;55581;46.718;7.690;2022-12-07T12:00:04;10.68;;;5.05;;
68608;SDS011;55581;46.718;7.690;2022-12-07T12:02:34;10.45;;;5.00;;
68608;SDS011;55581;46.718;7.690;2022-12-07T12:05:16;13.53;;;5.00;;
68608;SDS011;55581;46.718;7.690;2022-12-07T12:07:44;10.73;;;4.25;;
68608;SDS011;55581;46.718;7.690;2022-12-07T12:10:29;10.93;;;4.90;;
68608;SDS011;55581;46.718;7.690;2022-12-07T12:13:02;10.73;;;4.85;;
68608;SDS011;55581;46.718;7.690;2022-12-07T12:21:03;9.20;;;3.30;;
68608;SDS011;55581;46.718;7.690;2022-12-07T12:26:23;8.27;;;4.35;;
68608;SDS011;55581;46.718;7.690;2022-12-07T12:34:03;9.02;;;3.67;;
68608;SDS011;55581;46.718;7.690;2022-12-07T12:36:49;8.00;;;3.42;;
68608;SDS011;55581;46.718;7.690;2022-12-07T12:39:15;9.57;;;3.57;;
68608;SDS011;55581;46.718;7.690;2022-12-07T12:51:58;8.82;;;4.00;;
68608;SDS011;55581;46.718;7.690;2022-12-07T12:54:31;8.40;;;3.83;;
68608;SDS011;55581;46.718;7.690;2022-12-07T12:57:19;9.27;;;4.07;;
68608;SDS011;55581;46.718;7.690;2022-12-07T13:04:56;8.55;;;3.67;;
68608;SDS011;55581;46.718;7.690;2022-12-07T13:15:32;7.70;;;3.13;;
68608;SDS011;55581;46.718;7.690;2022-12-07T13:18:03;11.05;;;3.60;;
68608;SDS011;55581;46.718;7.690;2022-12-07T13:28:33;7.53;;;3.13;;
68608;SDS011;55581;46.718;7.690;2022-12-07T13:33:35;7.35;;;3.65;;
68608;SDS011;55581;46.718;7.690;2022-12-07T13:36:01;8.68;;;3.75;;
68608;SDS011;55581;46.718;7.690;2022-12-07T13:38:28;8.23;;;3.50;;
68608;SDS011;55581;46.718;7.690;2022-12-07T13:41:03;6.32;;;2.80;;
68608;SDS011;55581;46.718;7.690;2022-12-07T13:43:45;7.55;;;2.97;;
68608;SDS011;55581;46.718;7.690;2022-12-07T13:46:13;8.80;;;3.30;;
68608;SDS011;55581;46.718;7.690;2022-12-07T13:48:46;8.80;;;3.30;;
68608;SDS011;55581;46.718;7.690;2022-12-07T13:51:17;7.68;;;3.42;;
68608;SDS011;55581;46.718;7.690;2022-12-07T13:54:08;6.57;;;3.05;;
68608;SDS011;55581;46.718;7.690;2022-12-07T13:56:35;7.43;;;3.35;;
68608;SDS011;55581;46.718;7.690;2022-12-07T13:59:01;8.10;;;3.17;;
68608;SDS011;55581;46.718;7.690;2022-12-07T14:01:28;8.07;;;3.83;;
68608;SDS011;55581;46.718;7.690;2022-12-07T14:03:55;7.55;;;3.38;;
68608;SDS011;55581;46.718;7.690;2022-12-07T14:06:50;7.80;;;3.08;;
68608;SDS011;55581;46.718;7.690;2022-12-07T14:09:23;7.95;;;3.22;;
68608;SDS011;55581;46.718;7.690;2022-12-07T14:11:50;7.87;;;3.60;;
68608;SDS011;55581;46.718;7.690;2022-12-07T14:14:19;8.18;;;3.72;;
68608;SDS011;55581;46.718;7.690;2022-12-07T14:22:25;9.05;;;3.22;;
68608;SDS011;55581;46.718;7.690;2022-12-07T14:24:57;8.73;;;3.53;;
68608;SDS011;55581;46.718;7.690;2022-12-07T14:27:24;9.02;;;3.60;;
68608;SDS011;55581;46.718;7.690;2022-12-07T14:29:55;9.80;;;3.90;;
68608;SDS011;55581;46.718;7.690;2022-12-07T14:32:24;8.45;;;3.30;;
68608;SDS011;55581;46.718;7.690;2022-12-07T14:37:19;7.63;;;3.53;;
68608;SDS011;55581;46.718;7.690;2022-12-07T14:39:45;7.47;;;3.40;;
68608;SDS011;55581;46.718;7.690;2022-12-07T14:42:10;10.10;;;4.00;;
68608;SDS011;55581;46.718;7.690;2022-12-07T14:44:36;9.50;;;4.07;;
68608;SDS011;55581;46.718;7.690;2022-12-07T14:47:01;8.73;;;3.53;;
68608;SDS011;55581;46.718;7.690;2022-12-07T14:49:27;8.20;;;4.00;;
68608;SDS011;55581;46.718;7.690;2022-12-07T14:51:57;8.68;;;4.05;;
68608;SDS011;55581;46.718;7.690;2022-12-07T14:54:23;9.57;;;3.70;;
68608;SDS011;55581;46.718;7.690;2022-12-07T14:56:53;7.90;;;3.60;;
68608;SDS011;55581;46.718;7.690;2022-12-07T14:59:18;7.35;;;3.17;;
68608;SDS011;55581;46.718;7.690;2022-12-07T15:01:43;9.53;;;4.50;;
68608;SDS011;55581;46.718;7.690;2022-12-07T15:04:09;8.70;;;3.67;;
68608;SDS011;55581;46.718;7.690;2022-12-07T15:06:34;9.33;;;3.97;;
68608;SDS011;55581;46.718;7.690;2022-12-07T15:09:00;7.78;;;3.85;;
68608;SDS011;55581;46.718;7.690;2022-12-07T15:11:27;8.80;;;3.63;;
68608;SDS011;55581;46.718;7.690;2022-12-07T15:13:53;7.65;;;4.22;;
68608;SDS011;55581;46.718;7.690;2022-12-07T15:16:33;7.88;;;3.78;;
68608;SDS011;55581;46.718;7.690;2022-12-07T15:19:00;8.00;;;3.75;;
68608;SDS011;55581;46.718;7.690;2022-12-07T15:21:25;8.33;;;4.30;;
68608;SDS011;55581;46.718;7.690;2022-12-07T15:23:51;9.43;;;4.37;;
68608;SDS011;55581;46.718;7.690;2022-12-07T15:26:16;8.65;;;3.55;;
68608;SDS011;55581;46.718;7.690;2022-12-07T15:28:42;8.98;;;3.67;;
68608;SDS011;55581;46.718;7.690;2022-12-07T15:31:14;13.77;;;4.03;;
68608;SDS011;55581;46.718;7.690;2022-12-07T15:33:40;8.02;;;3.20;;
68608;SDS011;55581;46.718;7.690;2022-12-07T15:36:06;9.50;;;3.73;;
68608;SDS011;55581;46.718;7.690;2022-12-07T15:38:32;8.45;;;3.95;;
68608;SDS011;55581;46.718;7.690;2022-12-07T15:40:58;8.20;;;3.90;;
68608;SDS011;55581;46.718;7.690;2022-12-07T15:43:23;8.30;;;3.95;;
68608;SDS011;55581;46.718;7.690;2022-12-07T15:46:07;16.63;;;7.57;;
68608;SDS011;55581;46.718;7.690;2022-12-07T15:48:33;8.07;;;3.70;;
68608;SDS011;55581;46.718;7.690;2022-12-07T15:51:02;9.73;;;4.07;;
68608;SDS011;55581;46.718;7.690;2022-12-07T15:53:28;11.88;;;5.28;;
68608;SDS011;55581;46.718;7.690;2022-12-07T15:55:54;11.33;;;4.23;;
68608;SDS011;55581;46.718;7.690;2022-12-07T15:58:19;10.50;;;4.80;;
68608;SDS011;55581;46.718;7.690;2022-12-07T16:00:45;12.27;;;5.30;;
68608;SDS011;55581;46.718;7.690;2022-12-07T16:03:11;10.87;;;5.07;;
68608;SDS011;55581;46.718;7.690;2022-12-07T16:05:36;10.13;;;5.23;;
68608;SDS011;55581;46.718;7.690;2022-12-07T16:08:02;21.97;;;9.80;;
68608;SDS011;55581;46.718;7.690;2022-12-07T16:10:27;23.70;;;14.13;;
68608;SDS011;55581;46.718;7.690;2022-12-07T16:12:52;29.17;;;15.77;;
68608;SDS011;55581;46.718;7.690;2022-12-07T16:15:18;14.43;;;6.43;;
68608;SDS011;55581;46.718;7.690;2022-12-07T16:17:45;12.70;;;6.20;;
68608;SDS011;55581;46.718;7.690;2022-12-07T16:20:11;18.87;;;9.03;;
68608;SDS011;55581;46.718;7.690;2022-12-07T16:22:36;15.05;;;6.15;;
68608;SDS011;55581;46.718;7.690;2022-12-07T16:25:02;9.77;;;4.40;;
68608;SDS011;55581;46.718;7.690;2022-12-07T16:27:30;11.45;;;4.90;;
68608;SDS011;55581;46.718;7.690;2022-12-07T16:29:55;13.27;;;6.37;;
68608;SDS011;55581;46.718;7.690;2022-12-07T16:32:21;11.43;;;5.17;;
68608;SDS011;55581;46.718;7.690;2022-12-07T16:34:46;12.47;;;6.33;;
68608;SDS011;55581;46.718;7.690;2022-12-07T16:37:12;9.95;;;5.15;;
68608;SDS011;55581;46.718;7.690;2022-12-07T16:39:37;11.13;;;5.30;;
68608;SDS011;55581;46.718;7.690;2022-12-07T16:42:02;11.10;;;5.17;;
68608;SDS011;55581;46.718;7.690;2022-12-07T16:44:28;14.35;;;6.63;;
68608;SDS011;55581;46.718;7.690;2022-12-07T16:46:53;16.57;;;6.63;;
68608;SDS011;55581;46.718;7.690;2022-12-07T16:49:19;10.57;;;4.93;;
68608;SDS011;55581;46.718;7.690;2022-12-07T16:51:44;11.57;;;5.10;;
68608;SDS011;55581;46.718;7.690;2022-12-07T16:54:11;10.70;;;5.22;;
68608;SDS011;55581;46.718;7.690;2022-12-07T16:56:37;12.80;;;5.47;;